Seeley, CA

5:11 PM PDT on March 26, 2015 (GMT -0700)
El Centro Naval Air Facility | | Change Station
CLOSE
Current Station
Airport
Location: El Centro,
Elevation: -43 ft
Nearby Weather Stations

Elev -43 ft 32.83 °N, 115.66 °W | Updated 15 minutes ago

Clear
Clear
91 °F
Feels Like 91 °F
N
0
Wind Variable Wind from North

Today
High -- | Low -- °F
--% Chance of Precip.
Yesterday
High -- | Low -- °F
Precip. -- in
6:38 AM 6:58 PM
Waxing Crescent, 47% visible
Pressure 30.03 in
Visibility 10.0 miles
Clouds Few 25000 ft
Dew Point 19 °F
Humidity 7%
Rainfall 0.00 in
Snow Depth Not available.
UV 2 out of 12
Pollen 11.60 out of 12
Air Quality Not available.
Flu Activity Not available.
METAR KNJK 262356Z 00000KT 10SM FEW250 33/M07 A2998 RMK AO2 SLP168 T03281072 10339 20300 56017

More Conditions Fewer Conditions

Pressure 30.03 in
Visibility 10.0 miles
Clouds Few 25000 ft
Dew Point 19 °F
Humidity 7%
Rainfall 0.00 in
Snow Depth Not available.
UV 2 out of 12
Pollen 11.60 out of 12
Air Quality Not available.
Flu Activity Not available.
METAR KNJK 262356Z 00000KT 10SM FEW250 33/M07 A2998 RMK AO2 SLP168 T03281072 10339 20300 56017

More Conditions Fewer Conditions

10-Day Weather Forecast

Almanac

Astronomy

Mar. 26, 2015 Rise Set
Actual Time
Civil Twilight
Nautical Twilight
Astronomical Twilight
Moon
Length of Visible Light
Length of Day
Tomorrow will be .
, % of the Moon is Illuminated

Today's Extremes

State Highs State Lows

Community

WunderPhotos

Upload Photos

1,808,651 photos uploaded!

WunderBlogs® & News

Nearby

Air Quality

  Air Quality AQ Index Pollutant
Not available.

Snow Depth

Station Depth Elevation

Earthquake Activity

City Distance Mag. Time & Date
Minimum magnitude displayed is 2.5.

Coastal Water Temperatures

Place Temperature

Stations

Nearby Weather Stations

Station Location Temp. Windchill Dew Point Humidity Wind Precip. Elev Updated Type